createdAt,value
2023-01-06T00:01:48.921Z,64048.03
2023-01-06T00:04:17.152Z,64048.03
2023-01-06T00:06:45.549Z,64048.03
2023-01-06T00:09:14.979Z,64048.03
2023-01-06T00:11:43.164Z,64048.03
2023-01-06T00:14:11.368Z,64048.03
2023-01-06T00:16:39.576Z,64048.03
2023-01-06T00:19:07.886Z,64048.03
2023-01-06T00:21:36.203Z,64048.03
2023-01-06T00:24:04.599Z,64048.03
2023-01-06T00:26:32.893Z,64048.03
2023-01-06T00:29:01.490Z,64048.03
2023-01-06T00:31:29.965Z,64048.03
2023-01-06T00:33:58.575Z,64048.03
2023-01-06T00:36:26.957Z,64048.03
2023-01-06T00:38:55.293Z,64048.03
2023-01-06T00:41:42.298Z,64048.03
2023-01-06T00:44:10.657Z,64048.03
2023-01-06T00:46:39.067Z,64048.03
2023-01-06T00:49:08.043Z,64048.03
2023-01-06T00:51:38.267Z,64048.03
2023-01-06T00:54:11.875Z,64048.03
2023-01-06T00:56:42.281Z,64048.03
2023-01-06T00:59:12.577Z,64048.03
2023-01-06T01:01:41.894Z,64048.03
2023-01-06T01:04:11.447Z,64048.03
2023-01-06T01:06:43.165Z,64048.03
2023-01-06T01:09:27.912Z,64048.03
2023-01-06T01:12:12.640Z,64048.03
2023-01-06T01:14:47.227Z,64048.03
2023-01-06T01:17:26.233Z,64048.03
2023-01-06T01:19:56.096Z,64048.03
2023-01-06T01:22:25.920Z,64048.03
2023-01-06T01:24:54.159Z,64048.03
2023-01-06T01:27:22.417Z,64048.03
2023-01-06T01:29:50.696Z,64048.03
2023-01-06T01:32:18.883Z,64048.03
2023-01-06T01:34:47.877Z,64048.03
2023-01-06T01:37:16.252Z,64048.03
2023-01-06T01:39:44.506Z,64048.03
2023-01-06T01:42:18.841Z,64048.03
2023-01-06T01:45:02.071Z,64048.03
2023-01-06T01:47:40.916Z,64048.03
2023-01-06T01:50:34.546Z,64048.03
2023-01-06T01:53:18.694Z,64048.03
2023-01-06T01:55:50.343Z,64048.03
2023-01-06T01:58:28.643Z,64048.03
2023-01-06T02:00:57.059Z,64048.03
2023-01-06T02:03:27.256Z,64048.03
2023-01-06T02:06:01.111Z,64048.03
2023-01-06T02:08:43.025Z,64048.03
2023-01-06T02:11:12.002Z,64048.03
2023-01-06T02:13:44.431Z,64048.03
2023-01-06T02:16:39.128Z,64048.03
2023-01-06T02:19:38.092Z,64048.03
2023-01-06T02:22:46.381Z,64048.03
2023-01-06T02:25:26.883Z,64048.03
2023-01-06T02:28:13.653Z,64048.03
2023-01-06T02:31:00.121Z,64048.03
2023-01-06T02:33:42.252Z,64048.03
2023-01-06T02:36:25.526Z,64048.03
2023-01-06T02:39:18.166Z,64048.03
2023-01-06T02:42:05.391Z,64048.03
2023-01-06T02:45:01.428Z,64048.03
2023-01-06T02:47:55.330Z,64048.03
2023-01-06T02:50:46.278Z,64048.03
2023-01-06T02:53:15.154Z,64048.03
2023-01-06T02:55:51.416Z,64048.03
2023-01-06T02:58:31.546Z,64048.03
2023-01-06T03:01:15.955Z,64048.03
2023-01-06T03:03:47.916Z,64048.03
2023-01-06T03:06:24.165Z,64048.03
2023-01-06T03:08:55.347Z,64048.03
2023-01-06T03:11:26.989Z,64048.03
2023-01-06T03:14:48.813Z,64048.03
2023-01-06T03:17:17.589Z,64048.03
2023-01-06T03:19:46.173Z,64048.03
2023-01-06T03:22:17.351Z,64048.03
2023-01-06T03:24:46.740Z,64048.03
2023-01-06T03:27:21.770Z,64048.03
2023-01-06T03:29:53.335Z,64048.03
2023-01-06T03:32:47.478Z,64048.03
2023-01-06T03:35:22.946Z,64048.03
2023-01-06T03:38:03.816Z,64048.03
2023-01-06T03:40:55.892Z,64048.03
2023-01-06T03:43:30.940Z,64048.03
2023-01-06T03:46:08.299Z,64048.03
2023-01-06T03:48:49.334Z,64048.03
2023-01-06T03:51:48.060Z,64048.03
2023-01-06T03:54:36.440Z,64048.03
2023-01-06T03:57:17.010Z,64048.03
2023-01-06T03:59:57.134Z,64048.03
2023-01-06T04:02:26.331Z,64048.03
2023-01-06T04:05:16.970Z,64048.03
2023-01-06T04:07:50.463Z,64048.03
2023-01-06T04:10:21.152Z,64048.03
2023-01-06T04:12:52.587Z,64048.03
2023-01-06T04:15:29.489Z,64048.03
2023-01-06T04:18:00.042Z,64048.03
2023-01-06T04:20:32.249Z,64048.03
2023-01-06T04:23:23.234Z,64048.03
2023-01-06T04:25:52.254Z,64048.03
2023-01-06T04:28:32.502Z,64048.03
2023-01-06T04:31:02.772Z,64048.03
2023-01-06T04:33:33.599Z,64048.03
2023-01-06T04:36:05.273Z,64048.03
2023-01-06T04:38:34.670Z,64048.03
2023-01-06T04:41:03.026Z,64048.03
2023-01-06T04:43:31.241Z,64048.03
2023-01-06T04:46:00.219Z,64048.03
2023-01-06T04:48:28.534Z,64048.03
2023-01-06T04:51:04.804Z,64048.03
2023-01-06T04:53:37.980Z,64048.03
2023-01-06T04:56:08.821Z,64048.03
2023-01-06T04:58:37.412Z,64048.03
2023-01-06T05:01:08.445Z,64048.03
2023-01-06T05:03:38.465Z,64048.03
2023-01-06T05:06:11.929Z,64048.03
2023-01-06T05:08:42.234Z,64048.03
2023-01-06T05:11:16.498Z,64048.03
2023-01-06T05:13:45.144Z,64048.03
2023-01-06T05:16:15.259Z,64048.03
2023-01-06T05:18:45.141Z,64048.03
2023-01-06T05:21:13.638Z,64048.03
2023-01-06T05:23:41.921Z,64048.03
2023-01-06T05:26:15.513Z,64048.03
2023-01-06T05:28:43.752Z,64048.03
2023-01-06T05:31:12.726Z,64048.03
2023-01-06T05:33:41.276Z,64048.03
2023-01-06T05:36:15.553Z,64048.03
2023-01-06T05:38:44.435Z,64048.03
2023-01-06T05:41:15.424Z,64048.03
2023-01-06T05:43:43.648Z,64048.03
2023-01-06T05:46:12.642Z,64048.03
2023-01-06T05:48:41.619Z,64048.03
2023-01-06T05:51:12.894Z,64048.03
2023-01-06T05:53:43.247Z,64048.03
2023-01-06T05:56:14.191Z,64048.03
2023-01-06T05:58:46.214Z,64048.03
2023-01-06T06:01:25.146Z,64048.03
2023-01-06T06:03:54.932Z,64048.03
2023-01-06T06:06:25.500Z,64048.03
2023-01-06T06:08:53.798Z,64048.03
2023-01-06T06:11:22.512Z,64048.03
2023-01-06T06:13:53.685Z,64048.03
2023-01-06T06:16:25.171Z,64048.03
2023-01-06T06:18:56.050Z,64048.03
2023-01-06T06:21:29.008Z,64048.03
2023-01-06T06:23:59.282Z,64048.03
2023-01-06T06:26:28.736Z,64048.03
2023-01-06T06:28:57.323Z,64048.03
2023-01-06T06:31:28.033Z,64048.03
2023-01-06T06:33:59.846Z,64048.03
2023-01-06T06:36:29.342Z,64048.03
2023-01-06T06:38:58.021Z,64048.03
2023-01-06T06:41:26.979Z,64048.03
2023-01-06T06:43:55.249Z,64048.03
2023-01-06T06:46:23.445Z,64048.03
2023-01-06T06:48:54.655Z,64048.03
2023-01-06T06:51:23.500Z,64048.03
2023-01-06T06:53:52.224Z,64048.03
2023-01-06T06:56:21.599Z,64048.03
2023-01-06T06:58:50.784Z,64048.03
2023-01-06T07:01:20.965Z,64048.03
2023-01-06T07:03:50.395Z,64048.03
2023-01-06T07:06:22.880Z,64048.03
2023-01-06T07:08:51.588Z,64048.03
2023-01-06T07:11:22.418Z,64048.03
2023-01-06T07:13:50.991Z,64048.03
2023-01-06T07:16:23.080Z,64048.03
2023-01-06T07:18:51.371Z,64048.03
2023-01-06T07:21:22.301Z,64048.03
2023-01-06T07:23:50.513Z,64048.03
2023-01-06T07:26:18.788Z,64048.03
2023-01-06T07:28:47.163Z,64048.03
2023-01-06T07:31:15.467Z,64048.03
2023-01-06T07:33:43.621Z,64048.03
2023-01-06T07:36:11.861Z,64048.03
2023-01-06T07:38:40.040Z,64048.03
2023-01-06T07:41:08.281Z,64048.03
2023-01-06T07:43:37.775Z,64048.03
2023-01-06T07:46:06.273Z,64048.03
2023-01-06T07:48:34.889Z,64048.03
2023-01-06T07:51:03.558Z,64048.03
2023-01-06T07:53:32.541Z,64048.03
2023-01-06T07:56:00.798Z,64048.03
2023-01-06T07:58:29.231Z,64048.03
2023-01-06T08:00:57.768Z,64048.03
2023-01-06T08:03:26.659Z,64048.03
2023-01-06T08:05:54.986Z,64048.03
2023-01-06T08:08:23.671Z,64048.03
2023-01-06T08:10:51.938Z,64048.03
2023-01-06T08:13:22.941Z,64048.03
2023-01-06T08:15:52.179Z,64048.03
2023-01-06T08:18:20.643Z,64048.03
2023-01-06T08:20:49.281Z,64048.03
2023-01-06T08:23:17.986Z,64048.03
2023-01-06T08:25:46.221Z,64048.03
2023-01-06T08:28:14.480Z,64048.03
2023-01-06T08:30:43.604Z,64048.03
2023-01-06T08:33:11.831Z,64048.03
2023-01-06T08:35:40.026Z,64048.03
2023-01-06T08:38:08.236Z,64048.03
2023-01-06T08:40:36.414Z,64048.03
2023-01-06T08:43:04.661Z,64048.03
2023-01-06T08:45:32.855Z,64048.03
2023-01-06T08:48:01.115Z,64048.03
2023-01-06T08:50:29.365Z,64048.03
2023-01-06T08:52:57.639Z,64048.03
2023-01-06T08:55:25.882Z,64048.03
2023-01-06T08:57:55.137Z,64048.03
2023-01-06T09:00:23.759Z,64048.03
2023-01-06T09:02:52.542Z,64048.03
2023-01-06T09:05:20.947Z,64048.03
2023-01-06T09:07:50.849Z,64048.03
2023-01-06T09:10:19.816Z,64048.03
2023-01-06T09:12:48.371Z,64048.03
2023-01-06T09:15:16.969Z,64048.03
2023-01-06T09:17:45.345Z,64048.03
2023-01-06T09:20:13.660Z,64048.03
2023-01-06T09:22:42.014Z,64048.03
2023-01-06T09:25:10.323Z,64048.03
2023-01-06T09:27:40.389Z,64048.03
2023-01-06T09:30:09.249Z,64048.03
2023-01-06T09:32:37.526Z,64048.03
2023-01-06T09:35:06.188Z,64048.03
2023-01-06T09:37:34.338Z,64048.03
2023-01-06T09:40:03.272Z,64048.03
2023-01-06T09:43:04.222Z,64048.03
2023-01-06T09:45:43.495Z,64048.03
2023-01-06T09:48:29.784Z,64048.03
2023-01-06T09:51:02.873Z,64048.03
2023-01-06T09:53:46.157Z,64048.03
2023-01-06T09:56:17.762Z,64048.03
2023-01-06T09:59:04.796Z,64048.03
2023-01-06T10:01:45.072Z,64048.03
2023-01-06T10:04:26.015Z,64048.03
2023-01-06T10:07:00.694Z,64048.03
2023-01-06T10:09:41.029Z,64048.03
2023-01-06T10:12:35.109Z,64048.03
2023-01-06T10:15:18.718Z,64048.03
2023-01-06T10:18:25.085Z,64048.03
2023-01-06T10:21:30.803Z,64048.03
2023-01-06T10:24:04.767Z,64048.03
2023-01-06T10:26:43.606Z,64048.03
2023-01-06T10:29:17.991Z,64048.03
2023-01-06T10:31:48.420Z,64048.03
2023-01-06T10:34:22.873Z,64048.03
2023-01-06T10:37:03.764Z,64048.03
2023-01-06T10:39:35.210Z,64048.03
2023-01-06T10:42:50.843Z,64048.03
2023-01-06T10:45:19.715Z,64048.03
2023-01-06T10:47:48.148Z,64048.03
2023-01-06T10:50:19.045Z,64048.03
2023-01-06T10:52:48.988Z,64048.03
2023-01-06T10:55:36.665Z,64048.03
2023-01-06T10:58:31.598Z,64048.03
2023-01-06T11:01:09.726Z,64048.03
2023-01-06T11:04:11.871Z,64048.03
2023-01-06T11:06:46.252Z,64048.03
2023-01-06T11:09:36.352Z,64048.03
2023-01-06T11:12:13.178Z,64048.03
2023-01-06T11:14:42.288Z,64048.03
2023-01-06T11:17:21.319Z,64048.03
2023-01-06T11:20:05.223Z,64048.03
2023-01-06T11:22:38.614Z,64048.03
2023-01-06T11:25:22.069Z,64048.03
2023-01-06T11:28:20.466Z,64048.03
2023-01-06T11:30:53.471Z,64048.03
2023-01-06T11:33:24.572Z,64048.03
2023-01-06T11:35:54.774Z,64048.03
2023-01-06T11:38:23.940Z,64048.03
2023-01-06T11:40:53.919Z,64048.03
2023-01-06T11:43:32.716Z,64048.03
2023-01-06T11:46:10.026Z,64048.03
2023-01-06T11:48:46.787Z,64048.03
2023-01-06T11:51:43.020Z,64048.03
2023-01-06T11:54:36.068Z,64048.03
2023-01-06T11:57:19.607Z,64048.03
2023-01-06T12:00:02.991Z,64048.03
2023-01-06T12:02:49.817Z,64048.03
2023-01-06T12:05:37.015Z,64048.03
2023-01-06T12:08:45.704Z,64048.03
2023-01-06T12:11:27.686Z,64048.03
2023-01-06T12:14:10.918Z,64048.03
2023-01-06T12:16:56.138Z,64048.03
2023-01-06T12:19:37.616Z,64048.03
2023-01-06T12:22:17.863Z,64048.03
2023-01-06T12:25:06.457Z,64048.03
2023-01-06T12:27:48.569Z,64048.03
2023-01-06T12:30:37.142Z,64048.03
2023-01-06T12:33:28.711Z,64048.03
2023-01-06T12:36:04.869Z,64048.03
2023-01-06T12:38:42.088Z,64048.03
2023-01-06T12:41:31.902Z,64048.03
2023-01-06T12:44:24.257Z,64048.03
2023-01-06T12:47:39.654Z,64048.03
2023-01-06T12:50:35.627Z,64048.03
2023-01-06T12:53:35.209Z,64048.03
2023-01-06T12:56:24.298Z,64048.03
2023-01-06T12:59:02.590Z,64048.03
2023-01-06T13:01:54.770Z,64048.03
2023-01-06T13:05:01.253Z,64048.03
2023-01-06T13:08:00.512Z,64048.03
2023-01-06T13:10:40.005Z,64048.03
2023-01-06T13:13:23.437Z,64048.03
2023-01-06T13:15:55.241Z,64048.03
2023-01-06T13:18:51.180Z,64048.03
2023-01-06T13:21:22.982Z,64048.03
2023-01-06T13:24:06.346Z,64048.03
2023-01-06T13:26:49.698Z,64048.03
2023-01-06T13:29:28.159Z,64048.03
2023-01-06T13:32:35.326Z,64048.03
2023-01-06T13:35:31.372Z,64048.03
2023-01-06T13:38:37.886Z,64048.03
2023-01-06T13:41:27.788Z,64048.03
2023-01-06T13:43:58.428Z,64048.03
2023-01-06T13:46:28.943Z,64048.03
2023-01-06T13:49:02.709Z,64048.03
2023-01-06T13:51:37.773Z,64048.03
2023-01-06T13:54:06.112Z,64048.03
2023-01-06T13:56:35.757Z,64048.03
2023-01-06T13:59:23.080Z,64048.03
2023-01-06T14:01:53.094Z,64048.03
2023-01-06T14:04:41.937Z,64048.03
2023-01-06T14:07:11.732Z,64048.03
2023-01-06T14:09:48.234Z,64048.03
2023-01-06T14:12:22.150Z,64048.03
2023-01-06T14:15:23.404Z,64048.03
2023-01-06T14:17:52.094Z,64048.03
2023-01-06T14:20:36.250Z,64048.03
2023-01-06T14:23:25.651Z,64048.03
2023-01-06T14:25:57.059Z,64048.03
2023-01-06T14:28:28.789Z,64048.03
2023-01-06T14:31:42.201Z,64048.03
2023-01-06T14:34:13.372Z,64048.03
2023-01-06T14:36:42.086Z,64048.03
2023-01-06T14:39:21.159Z,64048.03
2023-01-06T14:42:01.541Z,64048.03
2023-01-06T14:44:48.766Z,64048.03
2023-01-06T14:47:48.068Z,64048.03
2023-01-06T14:50:29.834Z,64048.03
2023-01-06T14:53:37.235Z,64048.03
2023-01-06T14:56:11.338Z,64048.03
2023-01-06T14:58:39.499Z,64048.03
2023-01-06T15:01:19.344Z,64048.03
2023-01-06T15:03:55.239Z,64048.03
2023-01-06T15:06:25.686Z,64048.03
2023-01-06T15:08:55.576Z,64048.03
2023-01-06T15:11:29.593Z,64048.03
2023-01-06T15:13:57.941Z,64048.03
2023-01-06T15:16:26.286Z,64048.03
2023-01-06T15:18:55.039Z,64048.03
2023-01-06T15:21:23.983Z,64048.03
2023-01-06T15:23:55.319Z,64048.03
2023-01-06T15:26:31.295Z,64048.03
2023-01-06T15:29:05.906Z,64048.03
2023-01-06T15:31:40.240Z,101167.34
2023-01-06T15:34:25.405Z,101546.13
2023-01-06T15:36:56.485Z,101546.78
2023-01-06T15:39:30.584Z,101540.16
2023-01-06T15:41:59.969Z,101547.97
2023-01-06T15:44:33.949Z,101546.34
2023-01-06T15:47:19.349Z,101550.81
2023-01-06T15:49:57.050Z,101549.41
2023-01-06T15:52:34.404Z,101552.56
2023-01-06T15:55:18.477Z,101551.53
2023-01-06T15:57:54.082Z,101554.25
2023-01-06T16:00:26.713Z,101551.84
2023-01-06T16:02:55.419Z,101558.81
2023-01-06T16:05:39.149Z,101551.56
2023-01-06T16:08:18.042Z,101551.56
2023-01-06T16:10:48.297Z,101551.56
2023-01-06T16:13:29.892Z,101570.09
2023-01-06T16:16:05.215Z,101570.09
2023-01-06T16:18:37.223Z,101570.28
2023-01-06T16:21:26.594Z,101570.75
2023-01-06T16:23:57.284Z,117919.13
2023-01-06T16:26:29.404Z,78469.81
2023-01-06T16:29:00.676Z,64048.03
2023-01-06T16:31:33.345Z,64048.03
2023-01-06T16:34:22.723Z,64048.03
2023-01-06T16:36:54.610Z,64048.03
2023-01-06T16:39:22.980Z,64048.03
2023-01-06T16:42:00.093Z,64048.03
2023-01-06T16:44:32.311Z,64048.03
2023-01-06T16:47:02.010Z,64048.03
2023-01-06T16:49:31.166Z,64048.03
2023-01-06T16:52:00.182Z,64048.03
2023-01-06T16:54:28.988Z,64048.03
2023-01-06T16:56:57.263Z,64048.03
2023-01-06T16:59:29.715Z,64048.03
2023-01-06T17:01:57.959Z,64048.03
2023-01-06T17:04:29.102Z,64048.03
2023-01-06T17:06:57.854Z,64048.03
2023-01-06T17:09:28.534Z,64048.03
2023-01-06T17:11:56.794Z,64048.03
2023-01-06T17:14:24.972Z,64048.03
2023-01-06T17:16:53.402Z,64048.03
2023-01-06T17:19:26.554Z,64048.03
2023-01-06T17:22:04.816Z,64048.03
2023-01-06T17:24:35.023Z,64048.03
2023-01-06T17:27:23.261Z,64048.03
2023-01-06T17:29:51.954Z,64048.03
2023-01-06T17:32:41.337Z,64048.03
2023-01-06T17:35:30.727Z,64048.03
2023-01-06T17:38:13.525Z,64048.03
2023-01-06T17:40:41.917Z,64048.03
2023-01-06T17:43:22.776Z,64048.03
2023-01-06T17:45:51.411Z,64048.03
2023-01-06T17:48:20.101Z,64048.03
2023-01-06T17:50:54.749Z,64048.03
2023-01-06T17:53:50.580Z,64048.03
2023-01-06T17:56:21.139Z,64048.03
2023-01-06T17:58:49.724Z,64048.03
2023-01-06T18:01:27.547Z,64048.03
2023-01-06T18:03:59.614Z,64048.03
2023-01-06T18:06:37.615Z,64048.03
2023-01-06T18:09:18.815Z,64048.03
2023-01-06T18:11:49.644Z,64048.03
2023-01-06T18:14:24.234Z,64048.03
2023-01-06T18:16:54.913Z,64048.03
2023-01-06T18:19:30.882Z,64048.03
2023-01-06T18:21:59.284Z,64048.03
2023-01-06T18:24:36.045Z,64048.03
2023-01-06T18:27:27.883Z,64048.03
2023-01-06T18:30:19.170Z,64048.03
2023-01-06T18:32:50.612Z,64048.03
2023-01-06T18:35:28.892Z,64048.03
2023-01-06T18:38:03.210Z,64048.03
2023-01-06T18:40:37.240Z,64048.03
2023-01-06T18:43:38.917Z,64048.03
2023-01-06T18:46:18.416Z,64048.03
2023-01-06T18:48:48.232Z,64048.03
2023-01-06T18:51:21.265Z,64048.03
2023-01-06T18:53:50.818Z,64048.03
2023-01-06T18:56:24.498Z,64048.03
2023-01-06T18:58:58.406Z,64048.03
2023-01-06T19:01:29.729Z,64048.03
2023-01-06T19:04:19.471Z,64048.03
2023-01-06T19:07:10.014Z,64048.03
2023-01-06T19:09:47.554Z,64048.03
2023-01-06T19:12:16.066Z,64048.03
2023-01-06T19:14:51.042Z,64048.03
2023-01-06T19:17:25.214Z,64048.03
2023-01-06T19:19:56.149Z,64048.03
2023-01-06T19:22:34.303Z,64048.03
2023-01-06T19:25:26.397Z,64048.03
2023-01-06T19:27:59.962Z,64048.03
2023-01-06T19:30:46.354Z,64048.03
2023-01-06T19:33:23.582Z,64048.03
2023-01-06T19:35:59.668Z,64048.03
2023-01-06T19:38:35.557Z,64048.03
2023-01-06T19:41:09.574Z,64048.03
2023-01-06T19:43:38.104Z,64048.03
2023-01-06T19:46:22.485Z,64048.03
2023-01-06T19:48:52.076Z,64048.03
2023-01-06T19:51:34.202Z,64048.03
2023-01-06T19:54:12.059Z,64048.03
2023-01-06T19:56:42.855Z,64048.03
2023-01-06T19:59:17.848Z,64048.03
2023-01-06T20:01:46.959Z,64048.03
2023-01-06T20:04:24.412Z,64048.03
2023-01-06T20:06:53.026Z,64048.03
2023-01-06T20:09:24.211Z,64048.03
2023-01-06T20:11:52.745Z,64048.03
2023-01-06T20:14:21.382Z,64048.03
2023-01-06T20:16:49.943Z,64048.03
2023-01-06T20:19:18.166Z,64048.03
2023-01-06T20:21:46.394Z,64048.03
2023-01-06T20:24:14.716Z,64048.03
2023-01-06T20:26:43.070Z,64048.03
2023-01-06T20:29:11.510Z,64048.03
2023-01-06T20:31:39.762Z,64048.03
2023-01-06T20:34:08.064Z,64048.03
2023-01-06T20:36:36.371Z,64048.03
2023-01-06T20:39:04.594Z,64048.03
2023-01-06T20:41:35.680Z,64048.03
2023-01-06T20:44:03.941Z,64048.03
2023-01-06T20:46:32.251Z,64048.03
2023-01-06T20:49:00.431Z,64048.03
2023-01-06T20:51:28.606Z,64048.03
2023-01-06T20:53:56.845Z,64048.03
2023-01-06T20:56:25.047Z,64048.03
2023-01-06T20:58:53.368Z,64048.03
2023-01-06T21:01:21.668Z,64048.03
2023-01-06T21:03:50.545Z,64048.03
2023-01-06T21:06:19.967Z,64048.03
2023-01-06T21:08:51.314Z,64048.03
2023-01-06T21:11:19.611Z,64048.03
2023-01-06T21:13:47.801Z,64048.03
2023-01-06T21:16:16.078Z,64048.03
2023-01-06T21:18:44.369Z,64048.03
2023-01-06T21:21:12.607Z,64048.03
2023-01-06T21:23:40.942Z,64048.03
2023-01-06T21:26:09.179Z,64048.03
2023-01-06T21:28:37.355Z,64048.03
2023-01-06T21:31:05.909Z,64048.03
2023-01-06T21:33:34.159Z,64048.03
2023-01-06T21:36:02.345Z,64048.03
2023-01-06T21:38:30.965Z,64048.03
2023-01-06T21:41:24.945Z,64048.03
2023-01-06T21:43:53.250Z,64048.03
2023-01-06T21:46:24.503Z,64048.03
2023-01-06T21:48:52.853Z,64048.03
2023-01-06T21:51:21.072Z,64048.03
2023-01-06T21:53:49.292Z,64048.03
2023-01-06T21:56:17.627Z,64048.03
2023-01-06T21:58:45.858Z,64048.03
2023-01-06T22:01:14.339Z,64048.03
2023-01-06T22:03:42.618Z,64048.03
2023-01-06T22:06:11.476Z,64048.03
2023-01-06T22:08:39.847Z,64048.03
2023-01-06T22:11:08.768Z,64048.03
2023-01-06T22:13:39.238Z,64048.03
2023-01-06T22:16:08.955Z,64048.03
2023-01-06T22:18:37.428Z,64048.03
2023-01-06T22:21:05.904Z,64048.03
2023-01-06T22:23:35.657Z,64048.03
2023-01-06T22:26:04.542Z,64048.03
2023-01-06T22:28:33.022Z,64048.03
2023-01-06T22:31:01.265Z,64048.03
2023-01-06T22:33:29.502Z,64048.03
2023-01-06T22:35:58.700Z,64048.03
2023-01-06T22:38:26.949Z,64048.03
2023-01-06T22:40:55.201Z,64048.03
2023-01-06T22:43:23.461Z,64048.03
2023-01-06T22:45:57.014Z,64048.03
2023-01-06T22:48:25.856Z,64048.03
2023-01-06T22:51:00.520Z,64048.03
2023-01-06T22:53:30.045Z,64048.03
2023-01-06T22:56:03.117Z,64048.03
2023-01-06T22:58:36.448Z,64048.03
2023-01-06T23:01:06.186Z,64048.03
2023-01-06T23:03:35.292Z,64048.03
2023-01-06T23:06:10.030Z,64048.03
2023-01-06T23:08:48.056Z,64048.03
2023-01-06T23:11:20.972Z,64048.03
2023-01-06T23:13:56.499Z,64048.03
2023-01-06T23:16:26.770Z,64048.03
2023-01-06T23:18:55.280Z,64048.03
2023-01-06T23:21:25.023Z,64048.03
2023-01-06T23:23:54.065Z,64048.03
2023-01-06T23:26:28.502Z,64048.03
2023-01-06T23:28:57.824Z,64048.03
2023-01-06T23:31:29.106Z,64048.03
2023-01-06T23:34:00.379Z,64048.03
2023-01-06T23:36:30.798Z,64048.03
2023-01-06T23:39:00.424Z,64048.03
2023-01-06T23:41:32.260Z,64048.03
2023-01-06T23:44:01.800Z,64048.03
2023-01-06T23:46:36.333Z,64048.03
2023-01-06T23:49:05.229Z,64048.03
2023-01-06T23:51:35.378Z,64048.03
2023-01-06T23:54:05.046Z,64048.03
2023-01-06T23:56:35.547Z,64048.03
2023-01-06T23:59:05.877Z,64048.03
